Time;durP1;ratioP1;P1;durP2;ratioP2;P2;SDS_P1;SDS_P2;PMS_P1;PMS_P2;Temp;Humidity;BMP_temperature;BMP_pressure;BME280_temperature;BME280_humidity;BME280_pressure;Samples;Min_cycle;Max_cycle;Signal;HPM_P1;HPM_P2
2022/12/22 03:26:51;;;;;;;104.90;55.40;;;;;;;1.43;90.99;100450.55;1415975;89;21721;-80
2022/12/22 03:29:17;;;;;;;101.67;56.03;;;;;;;1.45;90.80;100452.62;1379374;90;22786;-80
2022/12/22 03:31:43;;;;;;;96.87;55.17;;;;;;;1.45;90.57;100452.62;1379442;90;21665;-80
2022/12/22 03:34:10;;;;;;;93.20;52.93;;;;;;;1.42;90.56;100456.70;1379616;90;21646;-81
2022/12/22 03:36:36;;;;;;;88.07;50.40;;;;;;;1.34;91.16;100459.28;1385029;90;22614;-80
2022/12/22 03:39:02;;;;;;;91.50;52.97;;;;;;;1.31;90.96;100469.05;1379591;90;21586;-81
2022/12/22 03:46:58;;;;;;;89.37;50.67;;;;;;;1.22;91.66;100458.68;1409605;89;21593;-80
2022/12/22 03:49:25;;;;;;;87.33;49.33;;;;;;;1.25;91.81;100461.11;1386849;89;22747;-81
2022/12/22 03:51:53;;;;;;;89.13;52.97;;;;;;;1.29;91.80;100460.47;1389325;89;21886;-81
2022/12/22 03:54:23;;;;;;;91.00;54.23;;;;;;;1.29;91.77;100457.86;1382635;89;21524;-82
2022/12/22 03:56:50;;;;;;;91.50;55.50;;;;;;;1.29;91.79;100458.69;1380372;89;22436;-81
2022/12/22 03:59:17;;;;;;;93.13;55.97;;;;;;;1.32;91.88;100458.55;1383409;89;21677;-82
2022/12/22 04:01:50;;;;;;;92.43;52.97;;;;;;;1.34;91.95;100450.15;1383530;89;21560;-80
2022/12/22 04:04:19;;;;;;;89.80;53.53;;;;;;;1.33;91.73;100450.25;1541583;89;21570;-81
2022/12/22 04:06:46;;;;;;;88.37;52.53;;;;;;;1.31;91.69;100449.02;1386409;89;21661;-81
2022/12/22 04:09:12;;;;;;;82.67;48.97;;;;;;;1.35;91.38;100450.98;1514529;89;22736;-80
2022/12/22 04:14:24;;;;;;;87.27;49.70;;;;;;;1.31;91.35;100454.24;1458596;89;21664;-82
2022/12/22 04:16:50;;;;;;;86.83;49.17;;;;;;;1.30;91.30;100451.27;1452868;89;21761;-79
2022/12/22 04:19:17;;;;;;;89.90;53.00;;;;;;;1.31;91.40;100450.80;1457585;89;23045;-82
2022/12/22 04:21:43;;;;;;;88.77;52.10;;;;;;;1.29;91.64;100454.78;1432575;89;21877;-83
2022/12/22 04:24:12;;;;;;;83.77;49.33;;;;;;;1.27;91.73;100457.96;1456102;89;21671;-82
2022/12/22 04:26:38;;;;;;;74.47;46.03;;;;;;;1.23;91.43;100456.44;1382210;89;21606;-82
2022/12/22 04:29:04;;;;;;;83.93;49.33;;;;;;;1.18;91.06;100456.32;1384355;89;21582;-79
2022/12/22 04:31:31;;;;;;;82.13;50.50;;;;;;;1.15;91.09;100449.52;1384735;89;21612;-80
2022/12/22 04:33:57;;;;;;;87.47;51.60;;;;;;;1.17;91.26;100452.05;1384175;89;21630;-81
2022/12/22 04:36:23;;;;;;;80.70;50.20;;;;;;;1.16;91.19;100456.42;1384436;89;22426;-81
2022/12/22 04:38:49;;;;;;;80.53;48.00;;;;;;;1.17;91.56;100456.80;1384683;89;21657;-80
2022/12/22 04:41:15;;;;;;;87.37;49.50;;;;;;;1.05;91.66;100454.41;1365968;91;21605;-79
2022/12/22 04:43:42;;;;;;;81.33;49.87;;;;;;;1.05;91.51;100456.19;1384533;89;22607;-80
2022/12/22 04:46:08;;;;;;;82.67;47.70;;;;;;;1.06;91.69;100456.55;1384884;89;21718;-80
2022/12/22 04:48:34;;;;;;;81.17;48.67;;;;;;;1.02;91.68;100457.20;1384497;89;21636;-80
2022/12/22 04:51:01;;;;;;;108.43;58.47;;;;;;;1.06;91.60;100456.08;1489100;89;21613;-81
2022/12/22 04:53:29;;;;;;;89.47;50.93;;;;;;;1.09;91.34;100457.68;1388240;89;22599;-81
2022/12/22 04:56:05;;;;;;;94.00;53.93;;;;;;;1.13;91.39;100455.30;1381174;89;21533;-80
2022/12/22 04:58:32;;;;;;;83.40;48.53;;;;;;;1.11;91.03;100453.23;1539513;89;21541;-81
2022/12/22 05:01:11;;;;;;;86.80;50.27;;;;;;;1.07;90.95;100449.12;1381991;89;21705;-80
2022/12/22 05:03:37;;;;;;;82.07;47.40;;;;;;;1.06;90.97;100450.03;1466120;89;21692;-80
2022/12/22 05:06:04;;;;;;;78.63;46.93;;;;;;;1.02;90.73;100445.47;1455971;89;21756;-80
2022/12/22 05:08:31;;;;;;;82.67;50.30;;;;;;;1.04;90.92;100437.58;1455559;89;21707;-80
2022/12/22 05:10:57;;;;;;;88.47;50.43;;;;;;;1.08;91.14;100437.77;1459434;89;22520;-80
2022/12/22 05:13:25;;;;;;;80.47;49.30;;;;;;;1.11;91.09;100443.64;1451127;89;21876;-78
2022/12/22 05:15:51;;;;;;;87.57;50.47;;;;;;;1.15;91.18;100440.39;1454724;89;22559;-80
2022/12/22 05:18:18;;;;;;;95.80;53.17;;;;;;;1.17;91.23;100442.45;1451615;89;21758;-79
2022/12/22 05:20:44;;;;;;;79.90;48.57;;;;;;;1.17;91.13;100442.45;1453718;89;22341;-79
2022/12/22 05:23:11;;;;;;;88.80;52.80;;;;;;;1.15;91.01;100444.30;1450288;89;21841;-80
2022/12/22 05:25:37;;;;;;;128.77;71.43;;;;;;;1.14;91.06;100446.54;1454832;89;22426;-78
2022/12/22 05:28:04;;;;;;;95.30;56.87;;;;;;;1.13;91.25;100450.09;1456115;89;21665;-80
2022/12/22 05:30:30;;;;;;;94.57;51.57;;;;;;;1.13;90.99;100447.01;1458672;89;21781;-80
2022/12/22 05:32:56;;;;;;;89.93;51.20;;;;;;;1.17;90.95;100447.67;1457620;89;21649;-80
2022/12/22 05:35:22;;;;;;;93.07;53.13;;;;;;;1.22;90.99;100450.02;1453462;89;21502;-78
2022/12/22 05:37:49;;;;;;;93.97;56.33;;;;;;;1.26;91.04;100441.92;1459838;89;22343;-80
2022/12/22 05:40:15;;;;;;;91.67;52.20;;;;;;;1.30;91.05;100444.75;1453432;89;21625;-80
2022/12/22 05:42:42;;;;;;;87.13;50.53;;;;;;;1.30;90.26;100447.83;1452664;89;22552;-81
2022/12/22 05:45:18;;;;;;;95.30;54.33;;;;;;;1.27;90.01;100448.84;1451789;89;21758;-79
2022/12/22 05:47:50;;;;;;;87.20;53.67;;;;;;;1.28;90.17;100453.11;1455714;89;22522;-80
2022/12/22 05:50:22;;;;;;;95.00;55.97;;;;;;;1.30;90.38;100455.18;1451967;89;21745;-81
2022/12/22 05:52:49;;;;;;;91.83;54.03;;;;;;;1.30;90.36;100449.97;1452740;89;22126;-82
2022/12/22 05:55:16;;;;;;;81.37;48.60;;;;;;;1.31;90.38;100450.33;1514894;89;21688;-81
2022/12/22 05:57:42;;;;;;;74.47;44.00;;;;;;;1.35;90.44;100454.89;1383828;89;21608;-80
2022/12/22 06:00:13;;;;;;;84.07;52.47;;;;;;;1.35;90.27;100451.85;1538200;89;21667;-80
2022/12/22 06:02:41;;;;;;;87.55;49.58;;;;;;;1.40;90.28;100446.35;1535959;89;21870;-80
2022/12/22 06:05:09;;;;;;;81.70;49.93;;;;;;;1.44;90.37;100441.79;1383041;89;21530;-82
2022/12/22 06:07:35;;;;;;;87.80;50.67;;;;;;;1.45;90.03;100446.09;1382561;89;21894;-81
2022/12/22 06:10:02;;;;;;;96.60;54.00;;;;;;;1.45;89.95;100447.41;1384425;89;22368;-81
2022/12/22 06:12:28;;;;;;;104.10;56.60;;;;;;;1.42;89.52;100461.45;1384067;89;21673;-82
2022/12/22 06:14:54;;;;;;;95.07;53.60;;;;;;;1.41;89.29;100462.39;1384769;89;21849;-80
2022/12/22 06:17:20;;;;;;;86.67;49.63;;;;;;;1.40;89.05;100454.64;1390568;89;22619;-81
2022/12/22 06:19:46;;;;;;;93.03;50.73;;;;;;;1.41;89.31;100452.41;1384897;89;21763;-82
2022/12/22 06:22:12;;;;;;;79.13;48.17;;;;;;;1.43;89.32;100451.86;1384533;89;21763;-81
2022/12/22 06:24:39;;;;;;;85.00;50.83;;;;;;;1.47;89.48;100450.30;1384940;89;22450;-85
2022/12/22 06:27:05;;;;;;;82.23;47.40;;;;;;;1.49;89.58;100452.80;1384768;89;21773;-84
2022/12/22 06:29:31;;;;;;;85.17;50.00;;;;;;;1.50;89.45;100455.80;1419556;89;21897;-81
2022/12/22 06:31:57;;;;;;;82.00;47.87;;;;;;;1.50;89.34;100457.11;1455183;89;22756;-82
2022/12/22 06:34:23;;;;;;;80.47;45.90;;;;;;;1.50;89.36;100463.63;1457387;89;21672;-82
2022/12/22 06:36:49;;;;;;;82.10;46.10;;;;;;;1.53;89.11;100463.45;1439073;89;21858;-82
2022/12/22 06:39:16;;;;;;;91.97;53.77;;;;;;;1.51;87.84;100457.48;1462068;89;21766;-81
2022/12/22 06:44:28;;;;;;;95.00;56.23;;;;;;;1.60;88.83;100467.37;1457099;89;21946;-82
2022/12/22 06:46:54;;;;;;;97.73;53.63;;;;;;;1.68;89.11;100470.84;1458158;89;21782;-83
2022/12/22 06:49:20;;;;;;;96.83;57.77;;;;;;;1.69;88.52;100468.13;1454302;89;21778;-82
2022/12/22 06:51:47;;;;;;;98.90;58.07;;;;;;;1.69;88.33;100465.52;1448724;89;22677;-82
2022/12/22 06:54:13;;;;;;;98.73;57.07;;;;;;;1.67;88.25;100464.80;1454290;90;22845;-82
2022/12/22 06:56:40;;;;;;;103.07;55.60;;;;;;;1.66;88.07;100461.79;1448676;90;21857;-82
2022/12/22 06:59:06;;;;;;;95.03;54.43;;;;;;;1.67;88.26;100464.80;1365711;91;21577;-82
2022/12/22 07:01:33;;;;;;;92.40;53.90;;;;;;;1.71;88.61;100472.80;1379707;90;22658;-80
2022/12/22 07:03:59;;;;;;;86.77;51.73;;;;;;;1.73;87.88;100465.73;1379481;90;21776;-82
2022/12/22 07:06:25;;;;;;;92.23;52.57;;;;;;;1.76;88.06;100469.47;1379453;90;22149;-81
2022/12/22 07:08:51;;;;;;;87.13;51.57;;;;;;;1.78;88.12;100469.36;1379849;90;22660;-80
2022/12/22 07:11:17;;;;;;;83.07;47.73;;;;;;;1.82;86.88;100465.66;1379781;90;21666;-81
2022/12/22 07:13:44;;;;;;;81.13;48.40;;;;;;;1.87;87.40;100466.67;1379585;90;21568;-81
2022/12/22 07:16:11;;;;;;;134.20;65.93;;;;;;;1.87;87.40;100466.67;1379418;90;21855;-83
2022/12/22 07:18:40;;;;;;;97.00;53.53;;;;;;;1.88;87.72;100460.54;1385047;90;21740;-83
2022/12/22 07:21:11;;;;;;;86.13;49.60;;;;;;;1.88;87.72;100460.54;1375770;90;21845;-81
2022/12/22 07:23:38;;;;;;;66.87;38.15;;;;;;;1.86;87.48;100456.70;1535547;90;21859;-82
2022/12/22 07:26:07;;;;;;;97.13;53.87;;;;;;;1.89;87.69;100458.30;1378929;89;22359;-81
2022/12/22 07:28:35;;;;;;;90.27;52.73;;;;;;;1.97;86.91;100471.73;1377247;90;21708;-80
2022/12/22 07:31:02;;;;;;;99.17;59.33;;;;;;;1.97;86.91;100471.73;1377243;90;22687;-82
2022/12/22 07:33:29;;;;;;;122.97;68.67;;;;;;;2.04;87.10;100474.34;1384371;90;21792;-83
2022/12/22 07:36:59;;;;;;;111.03;67.20;;;;;;;2.07;87.13;100462.88;1535478;89;22813;-81
2022/12/22 07:39:25;;;;;;;119.80;66.37;;;;;;;2.13;86.66;100468.59;1380497;90;21830;-82
2022/12/22 07:44:36;;;;;;;107.13;61.83;;;;;;;2.18;86.84;100465.20;1535429;89;21804;-81
2022/12/22 07:47:02;;;;;;;119.13;67.33;;;;;;;2.18;86.84;100465.20;1403027;91;21865;-82
2022/12/22 07:52:13;;;;;;;100.97;59.10;;;;;;;2.23;86.29;100462.33;1457160;89;22058;-82
2022/12/22 07:54:39;;;;;;;98.83;57.80;;;;;;;2.23;86.37;100454.21;1461975;89;21957;-81
2022/12/22 07:57:06;;;;;;;97.80;58.40;;;;;;;2.20;86.17;100454.21;1450186;89;22319;-81
2022/12/22 07:59:32;;;;;;;105.83;58.60;;;;;;;2.22;85.34;100465.88;1453186;89;21969;-82
2022/12/22 08:01:58;;;;;;;96.60;55.90;;;;;;;2.22;85.64;100471.94;1462435;89;22937;-82
2022/12/22 08:04:24;;;;;;;123.07;66.77;;;;;;;2.28;85.82;100464.20;1432783;89;22285;-81
2022/12/22 08:06:50;;;;;;;111.33;63.27;;;;;;;2.37;85.68;100470.63;1455106;89;22201;-81
2022/12/22 08:09:20;;;;;;;106.77;59.17;;;;;;;2.38;84.91;100469.22;1460799;89;23261;-82
2022/12/22 08:11:47;;;;;;;100.60;58.60;;;;;;;2.39;84.92;100467.00;1454587;89;22265;-82
2022/12/22 08:14:14;;;;;;;176.13;93.00;;;;;;;2.39;84.92;100467.00;1461280;89;22010;-80
2022/12/22 08:16:40;;;;;;;135.93;74.70;;;;;;;2.48;85.68;100469.04;1461016;89;22254;-81
2022/12/22 08:19:06;;;;;;;114.00;67.67;;;;;;;2.48;85.92;100462.50;1459042;89;22235;-80
2022/12/22 08:21:32;;;;;;;116.07;69.70;;;;;;;2.48;85.92;100462.50;1453225;89;22168;-79
2022/12/22 08:23:59;;;;;;;112.80;68.20;;;;;;;2.57;85.90;100466.80;1435189;89;21994;-84
2022/12/22 08:26:39;;;;;;;144.00;80.93;;;;;;;2.57;85.77;100453.73;1456740;89;22498;-86
2022/12/22 08:29:13;;;;;;;141.85;78.42;;;;;;;2.57;85.77;100453.73;1455299;89;21979;-83
2022/12/22 08:31:40;;;;;;;121.73;70.30;;;;;;;2.67;86.01;100470.49;1444445;89;21995;-85
2022/12/22 08:38:16;;;;;;;122.03;68.87;;;;;;;2.73;85.40;100466.66;1459530;89;22252;-85
2022/12/22 08:40:44;;;;;;;110.17;66.80;;;;;;;2.79;85.08;100478.03;1457644;89;22367;-86
2022/12/22 08:43:13;;;;;;;108.80;61.63;;;;;;;2.74;84.31;100472.27;1458549;89;23083;-87
2022/12/22 08:45:41;;;;;;;88.67;53.13;;;;;;;2.78;83.78;100484.20;1453697;89;22442;-88
2022/12/22 08:48:11;;;;;;;92.53;52.37;;;;;;;2.69;82.87;100476.00;1447518;89;22876;-88
2022/12/22 08:50:38;;;;;;;86.15;52.58;;;;;;;2.71;82.35;100470.69;1433545;89;22265;-87
2022/12/22 08:53:07;;;;;;;75.80;47.73;;;;;;;2.70;83.00;100471.61;1461168;89;21567;-87
2022/12/22 08:55:33;;;;;;;89.20;52.30;;;;;;;2.70;82.69;100465.94;1460889;89;22129;-89
2022/12/22 08:58:00;;;;;;;95.87;54.90;;;;;;;2.70;82.89;100465.94;1457053;89;22295;-87
2022/12/22 09:04:26;;;;;;;75.93;44.87;;;;;;;2.71;82.97;100464.98;1458282;89;22324;-90
2022/12/22 09:06:53;;;;;;;72.33;42.90;;;;;;;2.72;82.61;100456.67;1455393;89;22332;-86
2022/12/22 09:09:25;;;;;;;75.60;43.93;;;;;;;2.76;82.94;100449.47;1456740;89;22113;-89
2022/12/22 09:11:51;;;;;;;70.00;42.43;;;;;;;2.76;82.39;100449.47;1455471;89;22267;-89
2022/12/22 09:14:17;;;;;;;71.07;41.43;;;;;;;2.80;82.03;100454.89;1460909;89;22210;-87
2022/12/22 09:16:43;;;;;;;70.63;42.43;;;;;;;2.76;81.60;100458.63;1457330;89;23248;-90
2022/12/22 09:19:09;;;;;;;72.07;43.93;;;;;;;2.75;82.04;100458.27;1458851;89;22150;-88
2022/12/22 09:21:36;;;;;;;76.60;43.63;;;;;;;2.71;81.31;100454.53;1460120;89;22149;-89
2022/12/22 09:24:03;;;;;;;68.33;43.67;;;;;;;2.64;81.91;100454.53;1461138;89;22142;-88
2022/12/22 09:26:29;;;;;;;65.00;40.50;;;;;;;2.63;82.47;100445.03;1456616;89;22215;-90
2022/12/22 09:28:56;;;;;;;67.20;42.70;;;;;;;2.63;82.47;100431.97;1456439;89;22352;-89
2022/12/22 09:31:24;;;;;;;68.10;41.67;;;;;;;2.70;82.53;100443.72;1457045;89;22286;-90
2022/12/22 09:33:51;;;;;;;74.67;41.47;;;;;;;2.76;82.69;100442.47;1382517;89;23075;-89
2022/12/22 09:36:24;;;;;;;70.67;41.87;;;;;;;2.81;82.50;100442.19;1383592;89;22039;-89
2022/12/22 09:38:51;;;;;;;77.07;44.00;;;;;;;2.84;82.57;100440.20;1380823;89;21867;-90
2022/12/22 09:41:30;;;;;;;73.93;45.23;;;;;;;2.81;82.06;100433.87;1384109;89;22098;-87
2022/12/22 09:43:58;;;;;;;85.33;48.97;;;;;;;2.77;82.07;100427.17;1529307;89;22235;-88
2022/12/22 09:46:28;;;;;;;82.97;47.50;;;;;;;2.75;82.04;100433.43;1382087;89;22185;-89
2022/12/22 09:48:55;;;;;;;75.27;43.63;;;;;;;2.70;82.34;100434.58;1362708;91;22079;-87
2022/12/22 09:51:23;;;;;;;67.17;39.80;;;;;;;2.70;82.55;100430.66;1389656;89;22128;-87
2022/12/22 09:53:58;;;;;;;76.23;42.63;;;;;;;2.73;82.79;100431.38;1535524;90;22268;-88
2022/12/22 09:56:27;;;;;;;77.53;46.30;;;;;;;2.68;82.55;100435.13;1535653;90;22062;-88
2022/12/22 09:58:53;;;;;;;90.10;47.57;;;;;;;2.68;82.55;100435.13;1377433;90;22058;-84
2022/12/22 10:01:54;;;;;;;83.90;45.40;;;;;;;2.63;83.91;100431.97;1379371;90;22502;-88
2022/12/22 10:04:49;;;;;;;84.85;52.67;;;;;;;2.63;83.91;100431.97;1386471;90;22340;-86
2022/12/22 10:07:21;;;;;;;88.57;51.67;;;;;;;2.48;84.06;100427.71;1415872;89;21574;-85
2022/12/22 10:09:59;;;;;;;85.97;50.53;;;;;;;2.48;84.06;100427.71;1384017;90;21985;-87
2022/12/22 10:12:25;;;;;;;85.53;50.60;;;;;;;2.45;85.23;100409.62;1532435;89;22158;-88
2022/12/22 10:14:53;;;;;;;86.87;49.60;;;;;;;2.54;85.13;100424.70;1379471;90;22902;-89
2022/12/22 10:17:31;;;;;;;98.60;57.20;;;;;;;2.55;85.26;100421.15;1377730;89;21925;-86
2022/12/22 10:20:24;;;;;;;99.93;58.23;;;;;;;2.55;85.26;100421.15;1535958;90;21978;-85
2022/12/22 10:23:01;;;;;;;103.60;57.43;;;;;;;2.52;85.17;100412.20;1535612;90;22022;-88
2022/12/22 10:25:59;;;;;;;108.57;62.40;;;;;;;2.55;85.67;100412.00;1535593;90;21888;-86
2022/12/22 10:28:31;;;;;;;94.63;56.17;;;;;;;2.52;86.16;100404.36;1390907;90;22015;-87
2022/12/22 10:31:15;;;;;;;100.00;57.70;;;;;;;2.56;86.59;100412.84;1450803;89;22070;-84
2022/12/22 10:33:43;;;;;;;182.53;90.10;;;;;;;2.56;86.59;100412.84;1406820;93;22899;-89
2022/12/22 10:36:12;;;;;;;136.37;71.87;;;;;;;2.58;87.41;100407.89;1454354;89;23080;-85
2022/12/22 10:39:01;;;;;;;141.50;77.50;;;;;;;2.63;87.87;100418.06;1437946;90;21907;-87
2022/12/22 10:41:32;;;;;;;115.63;62.97;;;;;;;2.63;87.87;100418.06;1451120;90;22705;-85
2022/12/22 10:44:18;;;;;;;96.42;56.55;;;;;;;2.62;87.98;100415.92;1477910;90;22250;-85
2022/12/22 10:46:54;;;;;;;93.47;55.87;;;;;;;2.62;88.35;100420.31;1454134;90;21545;-88
2022/12/22 10:49:36;;;;;;;92.37;53.00;;;;;;;2.64;88.36;100412.72;1456218;90;22100;-87
2022/12/22 10:52:23;;;;;;;86.60;51.93;;;;;;;2.69;88.69;100409.36;1440433;89;22217;-90
2022/12/22 10:54:50;;;;;;;83.17;49.53;;;;;;;2.75;88.86;100390.31;1442672;90;23095;-85
2022/12/22 10:57:21;;;;;;;87.33;53.03;;;;;;;2.83;89.08;100403.73;1446789;90;22178;-87
2022/12/22 11:00:04;;;;;;;84.23;48.13;;;;;;;2.89;89.36;100400.72;1447016;90;22266;-87
2022/12/22 11:02:37;;;;;;;71.80;40.67;;;;;;;2.92;89.70;100402.66;1444581;90;22121;-88
2022/12/22 11:05:10;;;;;;;71.90;41.03;;;;;;;2.88;90.50;100395.12;1442347;90;23113;-87
2022/12/22 11:07:40;;;;;;;80.67;44.73;;;;;;;2.79;90.83;100391.77;1450251;90;22375;-87
2022/12/22 11:10:20;;;;;;;74.77;43.20;;;;;;;2.81;90.70;100382.90;1451313;90;22189;-88
2022/12/22 11:13:45;;;;;;;65.85;37.67;;;;;;;2.86;92.11;100376.08;1446728;90;22216;-86
2022/12/22 11:16:35;;;;;;;79.20;42.97;;;;;;;2.98;91.93;100376.58;1442708;90;22711;-89
2022/12/22 11:19:35;;;;;;;90.23;44.37;;;;;;;2.98;91.46;100361.38;1444564;90;22655;-87
2022/12/22 11:22:09;;;;;;;77.30;44.00;;;;;;;3.10;92.26;100365.31;1441818;90;22319;-87
2022/12/22 11:24:47;;;;;;;75.17;40.60;;;;;;;3.19;92.46;100366.95;1452321;90;22152;-86
2022/12/22 11:27:47;;;;;;;70.07;42.00;;;;;;;3.20;92.30;100371.27;1445774;90;22185;-87
2022/12/22 11:30:19;;;;;;;75.70;40.43;;;;;;;3.18;91.58;100374.44;1446514;90;23000;-88
2022/12/22 11:33:08;;;;;;;73.93;40.57;;;;;;;3.16;91.51;100368.85;1446500;90;22246;-86
2022/12/22 11:36:04;;;;;;;72.27;42.53;;;;;;;3.13;91.00;100359.88;1446700;90;22149;-88
2022/12/22 11:38:44;;;;;;;82.47;47.60;;;;;;;3.14;91.63;100360.73;1443967;90;22416;-85
2022/12/22 11:41:23;;;;;;;75.20;43.70;;;;;;;3.16;91.71;100359.70;1448090;90;22835;-87
2022/12/22 11:44:07;;;;;;;74.13;41.07;;;;;;;3.14;91.49;100353.72;1443960;90;22249;-85
2022/12/22 11:46:54;;;;;;;79.73;42.53;;;;;;;3.16;91.75;100349.69;1445934;90;22389;-87
2022/12/22 11:49:31;;;;;;;86.37;44.00;;;;;;;3.26;92.49;100359.08;1454225;90;22308;-87
2022/12/22 11:52:16;;;;;;;80.80;45.20;;;;;;;3.35;92.07;100361.91;1443895;90;22308;-88
2022/12/22 11:55:15;;;;;;;85.97;45.40;;;;;;;3.35;91.72;100361.08;1465451;89;22274;-87
2022/12/22 11:58:21;;;;;;;88.53;47.50;;;;;;;3.30;91.37;100346.16;1450937;90;23064;-87
2022/12/22 12:01:11;;;;;;;78.27;48.00;;;;;;;3.26;91.53;100347.31;1454965;89;22730;-86
2022/12/22 12:04:01;;;;;;;89.30;48.70;;;;;;;3.16;91.34;100350.55;1448452;90;22173;-80
2022/12/22 12:07:10;;;;;;;76.23;43.83;;;;;;;3.11;91.70;100360.47;1448097;90;22208;-85
2022/12/22 12:09:51;;;;;;;75.50;45.47;;;;;;;3.14;91.86;100368.11;1451389;89;22208;-87
2022/12/22 12:12:50;;;;;;;68.40;39.65;;;;;;;3.11;91.35;100365.70;1449644;89;22197;-87
2022/12/22 12:15:42;;;;;;;69.00;41.57;;;;;;;3.08;91.03;100361.11;1452604;90;21479;-85
2022/12/22 12:18:43;;;;;;;62.00;39.17;;;;;;;3.00;90.86;100372.09;1451503;90;22356;-84
2022/12/22 12:21:35;;;;;;;65.22;38.23;;;;;;;2.87;91.16;100381.20;1457965;89;23690;-88
2022/12/22 12:24:30;;;;;;;67.50;39.33;;;;;;;2.79;91.56;100370.86;1450757;90;21509;-88
2022/12/22 12:27:14;;;;;;;62.00;38.90;;;;;;;2.74;91.55;100376.88;1435852;90;22383;-90
2022/12/22 12:29:48;;;;;;;65.63;40.73;;;;;;;2.77;91.65;100367.53;1456154;89;22250;-87
2022/12/22 12:32:29;;;;;;;64.33;40.33;;;;;;;2.72;91.98;100362.59;1451892;90;22192;-87
2022/12/22 12:35:03;;;;;;;75.87;45.58;;;;;;;2.74;91.83;100368.56;1447476;89;22207;-87
2022/12/22 12:37:39;;;;;;;66.80;41.73;;;;;;;2.81;91.99;100365.08;1461224;90;21677;-89
2022/12/22 12:40:38;;;;;;;81.53;43.57;;;;;;;2.94;92.27;100364.66;1453217;90;23228;-88
2022/12/22 12:43:05;;;;;;;75.40;46.40;;;;;;;3.23;91.90;100378.43;1445217;90;22233;-87
2022/12/22 12:45:34;;;;;;;73.70;43.67;;;;;;;3.44;91.38;100377.45;1452633;90;22401;-86
2022/12/22 12:48:24;;;;;;;71.03;44.60;;;;;;;3.46;90.45;100368.21;1451688;90;22275;-86
2022/12/22 12:50:55;;;;;;;70.73;43.33;;;;;;;3.49;89.94;100377.99;1404873;93;22238;-88
2022/12/22 12:53:27;;;;;;;70.30;41.80;;;;;;;3.45;88.96;100372.58;1436392;89;22372;-90
2022/12/22 12:56:05;;;;;;;68.10;41.73;;;;;;;3.33;88.17;100374.72;1446058;90;21464;-88
2022/12/22 12:58:43;;;;;;;68.23;44.20;;;;;;;3.33;88.17;100374.72;1456616;90;21493;-89
2022/12/22 13:01:14;;;;;;;79.93;47.47;;;;;;;3.37;88.82;100380.13;1460897;90;23185;-88
2022/12/22 13:03:42;;;;;;;;;;;;;;;3.38;89.10;100388.34;1456669;90;22189;-88
2022/12/22 13:06:12;;;;;;;83.57;47.13;;;;;;;3.38;89.27;100389.64;1455402;90;20411;-88
2022/12/22 13:09:05;;;;;;;82.00;50.20;;;;;;;3.37;89.09;100374.91;1453154;90;22229;-86
2022/12/22 13:11:36;;;;;;;74.87;47.53;;;;;;;3.41;89.19;100389.91;1453039;90;21626;-88
2022/12/22 13:14:03;;;;;;;84.77;49.85;;;;;;;3.31;87.77;100389.67;1449732;89;22278;-86
2022/12/22 13:16:33;;;;;;;76.77;45.60;;;;;;;3.29;88.33;100387.65;1450666;90;21574;-87
2022/12/22 13:19:04;;;;;;;79.55;49.48;;;;;;;3.26;88.15;100387.86;1451289;90;22189;-87
2022/12/22 13:21:41;;;;;;;80.17;50.65;;;;;;;3.26;88.51;100377.39;1435593;90;21435;-88
2022/12/22 13:24:21;;;;;;;94.20;55.67;;;;;;;3.21;88.27;100378.99;1450077;90;21523;-87
2022/12/22 13:26:50;;;;;;;95.40;57.27;;;;;;;3.18;88.46;100370.52;1460250;90;23891;-86
2022/12/22 13:29:30;;;;;;;99.70;54.87;;;;;;;3.08;88.84;100363.28;1455864;90;23069;-89
2022/12/22 13:32:04;;;;;;;82.80;49.87;;;;;;;3.06;88.85;100361.23;1451131;90;22233;-87
2022/12/22 13:35:14;;;;;;;90.03;55.17;;;;;;;3.03;89.04;100362.75;1454609;89;22377;-87
2022/12/22 13:37:45;;;;;;;80.97;49.23;;;;;;;3.02;88.97;100375.91;1449145;90;22251;-87
2022/12/22 13:40:23;;;;;;;93.10;59.08;;;;;;;2.91;88.62;100380.55;1440020;90;23217;-87
2022/12/22 13:42:57;;;;;;;87.40;54.60;;;;;;;2.81;89.27;100371.14;1465544;90;22351;-84
2022/12/22 13:45:32;;;;;;;93.87;59.13;;;;;;;2.76;89.41;100381.52;1454785;90;22146;-88
2022/12/22 13:48:01;;;;;;;90.57;54.67;;;;;;;2.76;89.41;100381.52;1451505;90;22928;-86
2022/12/22 13:50:35;;;;;;;91.20;57.00;;;;;;;2.70;89.80;100378.83;1431463;90;23221;-86
2022/12/22 13:53:05;;;;;;;83.07;54.20;;;;;;;2.70;90.60;100386.23;1455769;89;22233;-86
2022/12/22 13:55:32;;;;;;;83.37;52.83;;;;;;;2.70;90.60;100391.06;1428728;91;23296;-87
2022/12/22 13:58:10;;;;;;;86.00;55.07;;;;;;;2.73;90.63;100392.17;1428428;91;22239;-87
2022/12/22 14:00:36;;;;;;;91.53;55.83;;;;;;;2.73;90.63;100392.17;1453087;89;22034;-87
2022/12/22 14:03:04;;;;;;;89.23;57.23;;;;;;;2.69;90.73;100375.86;1452927;90;22410;-88
2022/12/22 14:05:31;;;;;;;96.57;60.40;;;;;;;2.75;90.84;100378.55;1451226;90;22296;-86
2022/12/22 14:08:02;;;;;;;91.53;58.50;;;;;;;2.69;90.88;100374.08;1454876;90;23196;-87
2022/12/22 14:10:42;;;;;;;86.72;55.85;;;;;;;2.69;90.88;100374.08;1445602;90;22285;-88
2022/12/22 14:13:15;;;;;;;96.00;58.70;;;;;;;2.68;91.30;100369.80;1455213;89;22381;-87
2022/12/22 14:15:45;;;;;;;100.07;60.70;;;;;;;2.68;91.32;100372.41;1433656;90;21649;-88
2022/12/22 14:18:18;;;;;;;115.20;71.10;;;;;;;2.68;91.33;100360.66;1455895;90;23106;-85
2022/12/22 14:20:47;;;;;;;111.53;68.40;;;;;;;2.63;91.39;100356.19;1453900;89;21478;-89
2022/12/22 14:23:25;;;;;;;124.03;71.00;;;;;;;2.63;91.39;100356.19;1446467;90;22927;-88
2022/12/22 14:25:54;;;;;;;136.17;79.80;;;;;;;2.62;91.98;100375.42;1456928;89;23124;-89
2022/12/22 14:28:31;;;;;;;109.77;66.63;;;;;;;2.60;91.70;100377.76;1451291;90;22179;-88
2022/12/22 14:30:59;;;;;;;102.53;61.63;;;;;;;2.53;92.27;100385.13;1461851;89;22028;-88
2022/12/22 14:33:31;;;;;;;102.07;61.80;;;;;;;2.53;92.27;100385.13;1453632;90;23065;-88
2022/12/22 14:36:23;;;;;;;108.93;65.10;;;;;;;2.59;92.38;100391.73;1446598;90;22387;-88
2022/12/22 14:38:58;;;;;;;114.40;67.83;;;;;;;2.59;92.38;100391.73;1451637;89;22182;-86
2022/12/22 14:41:51;;;;;;;109.13;66.07;;;;;;;2.47;93.52;100378.98;1457096;89;22184;-87
2022/12/22 14:44:28;;;;;;;104.63;66.40;;;;;;;2.47;93.52;100378.98;1451898;90;22147;-88
2022/12/22 14:47:19;;;;;;;109.20;66.40;;;;;;;2.43;93.52;100369.68;1451580;89;22280;-85
2022/12/22 14:49:53;;;;;;;91.10;54.53;;;;;;;2.43;93.52;100369.68;1447077;90;21932;-91
2022/12/22 14:52:37;;;;;;;107.10;63.17;;;;;;;2.39;93.70;100376.05;1456911;90;21501;-91
2022/12/22 14:55:08;;;;;;;116.33;69.27;;;;;;;2.32;94.42;100393.02;1450448;89;22148;-87
2022/12/22 14:57:40;;;;;;;125.47;75.50;;;;;;;2.32;94.42;100393.02;1410697;92;21897;-88
2022/12/22 15:00:25;;;;;;;124.87;76.63;;;;;;;2.18;95.13;100406.45;1413730;93;22141;-88
2022/12/22 15:03:01;;;;;;;118.43;71.43;;;;;;;2.10;95.76;100399.59;1429371;91;21886;-85
2022/12/22 15:05:37;;;;;;;116.17;70.93;;;;;;;2.10;95.19;100399.59;1458645;89;22187;-88
2022/12/22 15:08:06;;;;;;;124.53;77.37;;;;;;;2.10;95.19;100399.59;1460537;89;22043;-87
2022/12/22 15:10:43;;;;;;;137.53;77.00;;;;;;;2.08;96.35;100390.16;1461524;89;21937;-88
2022/12/22 15:13:23;;;;;;;151.77;92.20;;;;;;;2.05;95.70;100378.13;1453032;89;21998;-86
2022/12/22 15:15:51;;;;;;;168.10;96.83;;;;;;;2.02;95.77;100359.58;1459095;89;21933;-88
2022/12/22 15:18:22;;;;;;;156.07;88.30;;;;;;;2.02;95.77;100359.58;1454852;89;22208;-88
2022/12/22 15:20:48;;;;;;;;;;;;;;;2.02;95.68;100363.50;1460396;89;22013;-88
2022/12/22 15:23:15;;;;;;;149.23;87.73;;;;;;;1.91;96.37;100373.75;1452185;89;20377;-85
2022/12/22 15:25:42;;;;;;;173.40;93.80;;;;;;;1.93;96.64;100384.11;1453731;89;21886;-88
2022/12/22 15:28:08;;;;;;;153.70;84.47;;;;;;;1.93;96.64;100384.11;1444196;89;21950;-88
2022/12/22 15:30:35;;;;;;;151.27;87.20;;;;;;;1.95;96.43;100384.84;1461636;89;21866;-88
2022/12/22 15:33:01;;;;;;;154.67;85.77;;;;;;;1.99;96.29;100360.24;1462265;89;21701;-87